Time;durP1;ratioP1;P1;durP2;ratioP2;P2;SDS_P1;SDS_P2;PMS_P1;PMS_P2;Temp;Humidity;BMP_temperature;BMP_pressure;BME280_temperature;BME280_humidity;BME280_pressure;Samples;Min_cycle;Max_cycle;Signal;HPM_P1;HPM_P2
2022/06/14 00:02:35;;;;;;;1.00;0.87;;;22.50;56.60;;;;;;5083377;27;20527;-48
2022/06/14 00:05:15;;;;;;;0.60;0.60;;;22.50;56.70;;;;;;5077523;27;20543;-47
2022/06/14 00:07:55;;;;;;;1.20;1.03;;;22.50;56.60;;;;;;5086588;27;20574;-48
2022/06/14 00:10:37;;;;;;;1.40;0.80;;;22.50;56.50;;;;;;5068282;28;20546;-49
2022/06/14 00:13:18;;;;;;;1.30;0.90;;;22.50;56.60;;;;;;5063365;28;20545;-48
2022/06/14 00:15:58;;;;;;;1.20;1.05;;;22.50;56.50;;;;;;5137709;27;1200024;-48
2022/06/14 00:18:39;;;;;;;1.10;0.73;;;22.50;56.60;;;;;;5067756;28;20938;-47
2022/06/14 00:21:21;;;;;;;1.43;1.20;;;22.50;56.70;;;;;;5082294;28;20540;-47
2022/06/14 00:24:02;;;;;;;1.23;1.10;;;22.50;56.70;;;;;;5061977;28;20552;-48
2022/06/14 00:26:42;;;;;;;1.83;0.80;;;22.50;56.60;;;;;;5124643;27;1201046;-47
2022/06/14 00:29:23;;;;;;;1.00;0.80;;;22.50;56.60;;;;;;5083828;27;20543;-48
2022/06/14 00:32:05;;;;;;;1.30;0.83;;;22.50;56.60;;;;;;5087435;27;21036;-48
2022/06/14 00:34:46;;;;;;;0.77;0.70;;;22.50;56.50;;;;;;5081708;27;20598;-47
2022/06/14 00:37:26;;;;;;;1.10;0.93;;;22.50;56.50;;;;;;5123071;27;20586;-48
2022/06/14 00:40:08;;;;;;;2.30;0.87;;;22.50;56.60;;;;;;5096672;22;20574;-48
2022/06/14 00:42:49;;;;;;;1.43;0.73;;;22.50;56.40;;;;;;5077199;28;21046;-47
2022/06/14 00:46:06;;;;;;;2.10;1.20;;;22.50;56.50;;;;;;5065010;27;20955;-50
2022/06/14 00:48:51;;;;;;;1.67;1.20;;;22.50;56.60;;;;;;5076748;28;20536;-48
2022/06/14 00:51:35;;;;;;;1.00;0.90;;;22.50;56.70;;;;;;5074818;28;20577;-49
2022/06/14 00:54:21;;;;;;;0.93;0.83;;;22.50;56.60;;;;;;5099475;27;20549;-52
2022/06/14 00:57:09;;;;;;;2.67;1.00;;;22.50;56.60;;;;;;5127068;27;20525;-52
2022/06/14 00:59:54;;;;;;;1.50;1.00;;;22.50;56.70;;;;;;5053321;28;20955;-49
2022/06/14 01:02:40;;;;;;;1.10;0.80;;;22.50;56.60;;;;;;5074382;27;20531;-49
2022/06/14 01:05:26;;;;;;;1.13;1.00;;;22.50;56.50;;;;;;5107117;27;20609;-49
2022/06/14 01:08:08;;;;;;;1.53;0.90;;;22.50;56.60;;;;;;5076587;28;20528;-50
2022/06/14 01:10:49;;;;;;;1.10;0.90;;;22.40;56.50;;;;;;5128095;27;20586;-50
2022/06/14 01:13:30;;;;;;;1.80;1.03;;;22.40;56.60;;;;;;5055797;28;20533;-47
2022/06/14 01:16:12;;;;;;;1.90;1.27;;;22.40;56.60;;;;;;5081963;28;20536;-48
2022/06/14 01:18:53;;;;;;;2.10;1.00;;;22.40;56.50;;;;;;5054634;27;20621;-50
2022/06/14 01:21:34;;;;;;;5.60;1.57;;;22.40;56.60;;;;;;5080133;28;20582;-49
2022/06/14 01:24:14;;;;;;;1.07;0.90;;;22.40;56.50;;;;;;5068592;27;20680;-48
2022/06/14 01:26:56;;;;;;;1.20;1.00;;;22.40;56.40;;;;;;5059122;27;20940;-50
2022/06/14 01:29:38;;;;;;;1.83;0.80;;;22.40;56.40;;;;;;5078353;27;21035;-51
2022/06/14 01:32:20;;;;;;;1.57;1.20;;;22.40;56.50;;;;;;5005863;28;20608;-48
2022/06/14 01:35:04;;;;;;;0.87;0.83;;;22.40;56.50;;;;;;5055069;27;20592;-49
2022/06/14 01:37:48;;;;;;;1.50;1.03;;;22.40;56.60;;;;;;5075233;28;20593;-50
2022/06/14 01:40:36;;;;;;;1.60;1.10;;;22.40;56.50;;;;;;5071219;27;20585;-51
2022/06/14 01:43:31;;;;;;;1.93;1.03;;;22.40;56.50;;;;;;5073452;28;20547;-48
2022/06/14 01:46:21;;;;;;;1.83;1.57;;;22.40;56.50;;;;;;5080031;27;20540;-49
2022/06/14 01:52:24;;;;;;;1.50;1.07;;;22.40;56.60;;;;;;5082808;28;20578;-51
2022/06/14 01:55:16;;;;;;;1.70;1.10;;;22.30;56.50;;;;;;5018651;27;20694;-48
2022/06/14 01:58:03;;;;;;;1.37;1.23;;;22.30;56.60;;;;;;5093916;27;20525;-50
2022/06/14 02:00:51;;;;;;;1.70;1.00;;;22.30;56.50;;;;;;5058842;27;20543;-50
2022/06/14 02:07:00;;;;;;;1.53;1.30;;;22.30;56.60;;;;;;5072521;28;21108;-50
2022/06/14 02:09:52;;;;;;;1.60;1.03;;;22.30;56.60;;;;;;5054175;27;20672;-48
2022/06/14 02:12:42;;;;;;;1.90;1.00;;;22.30;56.60;;;;;;5078709;28;20871;-50
2022/06/14 02:15:31;;;;;;;1.10;1.00;;;22.30;56.70;;;;;;5035956;28;20918;-48
2022/06/14 02:18:16;;;;;;;1.57;1.10;;;22.30;56.60;;;;;;5067913;28;20527;-48
2022/06/14 02:21:03;;;;;;;1.27;1.00;;;22.30;56.70;;;;;;5066334;28;20955;-47
2022/06/14 02:23:48;;;;;;;1.10;0.90;;;22.30;56.50;;;;;;5071110;28;20598;-48
2022/06/14 02:26:33;;;;;;;1.63;0.70;;;22.30;56.60;;;;;;5106582;27;20533;-47
2022/06/14 02:29:19;;;;;;;2.23;1.17;;;22.30;56.70;;;;;;5108974;27;21068;-49
2022/06/14 02:32:04;;;;;;;1.40;1.00;;;22.30;56.60;;;;;;5115143;27;20576;-51
2022/06/14 02:34:51;;;;;;;1.33;1.23;;;22.30;56.60;;;;;;5055958;28;20545;-50
2022/06/14 02:37:36;;;;;;;1.57;1.17;;;22.20;56.60;;;;;;5062288;28;20533;-51
2022/06/14 02:40:23;;;;;;;1.33;1.10;;;22.20;56.60;;;;;;5076331;27;20527;-47
2022/06/14 02:43:08;;;;;;;2.90;1.00;;;22.20;56.70;;;;;;5077928;28;20926;-50
2022/06/14 02:45:56;;;;;;;0.80;0.70;;;22.20;56.60;;;;;;5074591;28;20562;-49
2022/06/14 02:48:44;;;;;;;1.60;1.23;;;22.20;56.70;;;;;;5076951;28;20529;-49
2022/06/14 02:51:27;;;;;;;2.33;0.97;;;22.20;56.60;;;;;;5059223;28;21033;-48
2022/06/14 02:54:14;;;;;;;1.70;0.97;;;22.20;56.70;;;;;;5104658;27;20555;-49
2022/06/14 02:57:02;;;;;;;1.33;1.23;;;22.20;56.70;;;;;;5085759;27;20529;-49
2022/06/14 02:59:49;;;;;;;1.70;1.03;;;22.20;56.70;;;;;;5057822;28;20545;-48
2022/06/14 03:02:38;;;;;;;1.20;1.03;;;22.20;56.70;;;;;;5082164;27;20538;-50
2022/06/14 03:05:25;;;;;;;1.90;0.97;;;22.20;56.70;;;;;;5112906;27;20556;-49
2022/06/14 03:08:12;;;;;;;1.40;1.10;;;22.20;56.70;;;;;;5124613;27;20533;-49
2022/06/14 03:11:02;;;;;;;1.30;0.80;;;22.10;56.60;;;;;;5152677;27;20525;-47
2022/06/14 03:14:00;;;;;;;1.70;1.00;;;22.10;56.60;;;;;;5072680;28;20548;-49
2022/06/14 03:16:53;;;;;;;1.20;0.90;;;22.10;56.60;;;;;;5097916;27;21112;-49
2022/06/14 03:19:45;;;;;;;1.10;0.90;;;22.10;56.70;;;;;;5073246;27;20710;-48
2022/06/14 03:22:40;;;;;;;0.90;0.90;;;22.10;56.70;;;;;;5086962;28;20527;-49
2022/06/14 03:25:26;;;;;;;1.50;1.07;;;22.10;56.70;;;;;;5032782;27;20556;-50
2022/06/14 03:28:11;;;;;;;1.37;1.07;;;22.10;56.70;;;;;;5077854;28;20525;-48
2022/06/14 03:30:54;;;;;;;1.63;1.20;;;22.10;56.70;;;;;;5083358;27;20533;-49
2022/06/14 03:33:40;;;;;;;2.80;1.17;;;22.10;56.70;;;;;;5082924;28;20606;-50
2022/06/14 03:36:21;;;;;;;1.37;0.83;;;22.10;57.80;;;;;;5086003;27;20521;-49
2022/06/14 03:39:07;;;;;;;1.53;1.20;;;22.10;56.80;;;;;;5105838;27;21037;-47
2022/06/14 03:41:51;;;;;;;1.87;1.60;;;22.10;56.70;;;;;;5113493;27;21037;-48
2022/06/14 03:44:33;;;;;;;4.33;1.27;;;22.10;56.80;;;;;;5059262;27;20602;-48
2022/06/14 03:47:21;;;;;;;1.67;1.03;;;22.00;56.60;;;;;;5132663;27;20902;-48
2022/06/14 03:50:07;;;;;;;1.90;1.10;;;22.10;56.70;;;;;;5060715;27;20540;-48
2022/06/14 03:53:04;;;;;;;2.50;1.27;;;22.00;56.60;;;;;;5072715;28;20577;-48
2022/06/14 03:56:01;;;;;;;1.57;0.90;;;22.00;56.70;;;;;;5059379;27;20604;-47
2022/06/14 03:58:57;;;;;;;1.70;1.20;;;22.00;56.70;;;;;;5068798;27;20932;-48
2022/06/14 04:02:07;;;;;;;1.37;1.10;;;22.00;56.60;;;;;;5080206;28;20529;-49
2022/06/14 04:04:56;;;;;;;1.60;1.27;;;22.00;56.70;;;;;;5041538;28;20548;-49
2022/06/14 04:07:45;;;;;;;3.47;0.95;;;22.00;56.70;;;;;;5132851;27;1221966;-48
2022/06/14 04:10:35;;;;;;;1.50;1.10;;;22.00;56.70;;;;;;5041009;27;21065;-48
2022/06/14 04:13:26;;;;;;;1.50;0.87;;;22.00;56.70;;;;;;5086062;28;20528;-50
2022/06/14 04:16:17;;;;;;;2.13;1.10;;;22.00;56.80;;;;;;5130531;27;20531;-49
2022/06/14 04:19:09;;;;;;;2.07;1.10;;;22.00;56.80;;;;;;5132555;27;20589;-50
2022/06/14 04:21:56;;;;;;;0.80;0.80;;;22.00;56.70;;;;;;5108835;27;20580;-48
2022/06/14 04:24:42;;;;;;;2.30;1.33;;;22.00;56.70;;;;;;5065430;28;20554;-48
2022/06/14 04:27:32;;;;;;;1.43;1.13;;;21.90;56.70;;;;;;5084084;27;20524;-49
2022/06/14 04:30:17;;;;;;;1.10;0.80;;;21.90;56.70;;;;;;5125053;27;21053;-50
2022/06/14 04:33:07;;;;;;;1.60;1.00;;;21.90;56.80;;;;;;5099989;27;21005;-50
2022/06/14 04:35:51;;;;;;;1.20;1.00;;;21.90;56.80;;;;;;5052177;27;20591;-48
2022/06/14 04:38:37;;;;;;;1.73;1.37;;;21.90;56.80;;;;;;5097285;27;20631;-51
2022/06/14 04:41:23;;;;;;;1.10;1.03;;;21.90;56.80;;;;;;5080934;28;21043;-49
2022/06/14 04:44:08;;;;;;;1.70;1.10;;;21.90;56.90;;;;;;5070849;27;20593;-52
2022/06/14 04:46:55;;;;;;;1.57;0.97;;;21.90;56.80;;;;;;5105536;27;20635;-50
2022/06/14 04:49:43;;;;;;;1.13;0.83;;;21.90;56.90;;;;;;5053694;28;20541;-50
2022/06/14 04:52:28;;;;;;;1.90;1.10;;;21.90;56.90;;;;;;5076607;27;21446;-51
2022/06/14 04:55:13;;;;;;;2.00;1.53;;;21.90;57.00;;;;;;5045039;28;21081;-49
2022/06/14 04:57:58;;;;;;;2.20;1.30;;;21.90;56.90;;;;;;5085320;27;21065;-49
2022/06/14 05:00:47;;;;;;;3.00;0.93;;;21.80;56.80;;;;;;5065578;27;20574;-48
2022/06/14 05:03:34;;;;;;;2.00;0.90;;;21.80;56.80;;;;;;5066237;28;20599;-50
2022/06/14 05:06:20;;;;;;;1.83;1.50;;;21.90;56.90;;;;;;5077457;28;20526;-50
2022/06/14 05:09:07;;;;;;;1.20;1.10;;;21.80;56.70;;;;;;5066452;28;20532;-49
2022/06/14 05:11:52;;;;;;;3.50;1.37;;;21.80;56.80;;;;;;5103379;27;20536;-48
2022/06/14 05:14:35;;;;;;;1.40;1.30;;;21.80;56.80;;;;;;5094066;27;20537;-51
2022/06/14 05:17:21;;;;;;;1.40;1.20;;;21.80;56.80;;;;;;5083999;28;20520;-50
2022/06/14 05:20:10;;;;;;;1.97;1.40;;;21.80;56.80;;;;;;5054920;27;20599;-50
2022/06/14 05:22:59;;;;;;;2.20;1.23;;;21.80;56.80;;;;;;5108225;27;20527;-49
2022/06/14 05:25:47;;;;;;;1.97;1.20;;;21.80;56.80;;;;;;5062382;27;20558;-48
2022/06/14 05:28:36;;;;;;;1.63;1.30;;;21.80;56.80;;;;;;5061486;28;20537;-48
2022/06/14 05:31:27;;;;;;;1.43;1.00;;;21.80;56.70;;;;;;5086045;27;20532;-50
2022/06/14 05:34:15;;;;;;;1.33;1.10;;;21.80;56.90;;;;;;5121052;27;20577;-48
2022/06/14 05:37:02;;;;;;;1.23;1.10;;;21.80;56.70;;;;;;5080063;28;20528;-48
2022/06/14 05:39:48;;;;;;;1.33;0.90;;;21.80;56.70;;;;;;5056522;28;20942;-48
2022/06/14 05:42:34;;;;;;;2.33;1.37;;;21.80;56.60;;;;;;5070516;27;20587;-49
2022/06/14 05:45:18;;;;;;;1.10;1.00;;;21.80;56.40;;;;;;5052415;27;20561;-52
2022/06/14 05:48:04;;;;;;;1.57;1.03;;;21.80;56.40;;;;;;5127506;27;20517;-50
2022/06/14 05:50:50;;;;;;;1.97;1.40;;;21.80;56.50;;;;;;5067946;27;20546;-49
2022/06/14 05:53:35;;;;;;;1.17;1.07;;;21.80;56.30;;;;;;5079052;28;20556;-49
2022/06/14 05:56:21;;;;;;;1.10;1.00;;;21.80;56.40;;;;;;5115268;27;20577;-48
2022/06/14 05:59:08;;;;;;;1.40;1.10;;;21.80;56.70;;;;;;5130715;27;1260610;-51
2022/06/14 06:01:58;;;;;;;1.57;1.40;;;21.80;56.80;;;;;;5057193;27;20607;-48
2022/06/14 06:04:46;;;;;;;1.80;0.90;;;21.80;56.90;;;;;;5056554;28;20536;-49
2022/06/14 06:07:35;;;;;;;1.50;0.93;;;21.80;56.90;;;;;;5094716;27;20532;-47
2022/06/14 06:10:20;;;;;;;1.50;1.10;;;21.80;57.00;;;;;;5074635;27;20608;-50
2022/06/14 06:13:05;;;;;;;1.10;0.77;;;21.80;57.00;;;;;;5084954;28;20532;-49
2022/06/14 06:15:51;;;;;;;1.57;1.10;;;21.80;57.00;;;;;;5061544;27;21121;-49
2022/06/14 06:18:36;;;;;;;1.97;1.20;;;21.80;57.00;;;;;;5077019;28;21057;-48
2022/06/14 06:21:29;;;;;;;1.17;0.90;;;21.80;56.90;;;;;;5104406;27;20530;-50
2022/06/14 06:24:16;;;;;;;2.33;1.57;;;21.80;56.90;;;;;;5104298;27;20539;-52
2022/06/14 06:27:02;;;;;;;1.40;1.30;;;21.80;56.70;;;;;;5113340;27;20550;-52
2022/06/14 06:29:49;;;;;;;1.40;1.27;;;21.80;56.70;;;;;;5057528;28;20551;-50
2022/06/14 06:32:32;;;;;;;2.20;1.17;;;21.80;56.40;;;;;;5124063;27;20958;-50
2022/06/14 06:35:13;;;;;;;1.53;1.20;;;21.80;56.50;;;;;;5046221;27;20549;-49
2022/06/14 06:38:04;;;;;;;1.40;1.30;;;21.80;56.70;;;;;;5064925;28;20534;-52
2022/06/14 06:43:47;;;;;;;1.27;0.97;;;21.80;56.40;;;;;;5070196;28;20604;-50
2022/06/14 06:46:33;;;;;;;2.00;1.30;;;21.70;56.10;;;;;;5098222;27;20541;-48
2022/06/14 06:49:19;;;;;;;1.00;0.70;;;21.70;55.90;;;;;;5079590;27;20920;-47
2022/06/14 06:52:04;;;;;;;1.30;1.20;;;21.70;56.10;;;;;;5087788;28;20526;-47
2022/06/14 06:54:49;;;;;;;1.43;1.27;;;21.80;56.10;;;;;;5053653;28;20560;-49
2022/06/14 06:57:32;;;;;;;1.50;1.30;;;21.70;55.50;;;;;;5075771;28;20578;-48
2022/06/14 07:00:17;;;;;;;2.20;1.23;;;21.70;54.90;;;;;;5057136;27;20604;-48
2022/06/14 07:03:04;;;;;;;1.03;0.93;;;21.80;55.30;;;;;;5107540;27;20588;-48
2022/06/14 07:05:48;;;;;;;1.70;1.20;;;21.70;54.90;;;;;;5073504;27;21050;-49
2022/06/14 07:08:39;;;;;;;2.00;1.10;;;21.70;55.10;;;;;;5119736;27;20925;-50
2022/06/14 07:11:23;;;;;;;4.43;1.77;;;21.80;55.10;;;;;;5101550;27;20950;-50
2022/06/14 07:14:08;;;;;;;3.23;1.73;;;21.80;55.30;;;;;;5067329;28;20547;-49
2022/06/14 07:16:52;;;;;;;2.00;1.30;;;21.70;55.20;;;;;;5064604;28;21047;-47
2022/06/14 07:19:40;;;;;;;1.80;1.40;;;21.70;55.10;;;;;;5066586;27;20539;-50
2022/06/14 07:22:24;;;;;;;4.03;1.53;;;21.80;55.40;;;;;;5117560;27;20926;-48
2022/06/14 07:25:09;;;;;;;4.40;1.60;;;21.80;53.70;;;;;;5100531;27;20552;-49
2022/06/14 07:28:05;;;;;;;2.67;1.50;;;21.80;54.40;;;;;;5075010;28;20585;-48
2022/06/14 07:30:50;;;;;;;4.10;1.27;;;21.70;54.20;;;;;;5054187;27;20610;-50
2022/06/14 07:33:31;;;;;;;2.55;1.00;;;21.70;54.20;;;;;;5123664;27;20449;-48
2022/06/14 07:36:20;;;;;;;3.60;1.40;;;21.70;54.60;;;;;;5125176;27;20546;-49
2022/06/14 07:39:07;;;;;;;3.50;1.53;;;21.80;53.40;;;;;;5107227;27;20968;-48
2022/06/14 07:41:54;;;;;;;2.17;1.57;;;21.80;52.90;;;;;;5121532;27;21059;-48
2022/06/14 07:44:46;;;;;;;2.40;1.30;;;21.80;53.20;;;;;;5051421;28;20610;-46
2022/06/14 07:47:34;;;;;;;2.63;1.40;;;21.70;53.10;;;;;;5083055;28;20525;-48
2022/06/14 07:50:17;;;;;;;1.30;1.20;;;21.80;53.80;;;;;;5063412;27;20539;-49
2022/06/14 07:53:08;;;;;;;2.70;1.30;;;21.80;54.20;;;;;;5067823;28;20542;-47
2022/06/14 07:55:54;;;;;;;1.50;1.13;;;21.70;54.70;;;;;;5063609;27;20577;-49
2022/06/14 07:58:51;;;;;;;1.77;1.27;;;21.80;55.10;;;;;;5079406;27;20574;-48
2022/06/14 08:01:38;;;;;;;3.00;1.30;;;21.70;54.80;;;;;;5059380;27;20628;-52
2022/06/14 08:04:26;;;;;;;1.40;0.90;;;21.80;54.90;;;;;;5103981;27;20545;-48
2022/06/14 08:07:13;;;;;;;1.60;1.50;;;21.70;55.00;;;;;;5081849;28;20901;-48
2022/06/14 08:10:00;;;;;;;4.07;1.40;;;21.70;55.40;;;;;;5095442;27;1344913;-50
2022/06/14 08:12:47;;;;;;;2.57;1.10;;;21.70;55.50;;;;;;5098723;27;20515;-48
2022/06/14 08:15:29;;;;;;;1.77;1.05;;;21.70;55.40;;;;;;5076361;27;1199666;-50
2022/06/14 08:18:15;;;;;;;2.03;1.23;;;21.70;55.50;;;;;;5136859;27;1204104;-49
2022/06/14 08:20:58;;;;;;;1.60;1.40;;;21.70;55.60;;;;;;5079583;28;20516;-48
2022/06/14 08:23:45;;;;;;;1.63;0.90;;;21.70;55.80;;;;;;5113207;27;20837;-48
2022/06/14 08:26:31;;;;;;;2.63;1.17;;;21.70;55.90;;;;;;5083692;28;20863;-47
2022/06/14 08:29:18;;;;;;;2.10;0.93;;;21.70;55.90;;;;;;5093349;27;20524;-49
2022/06/14 08:32:05;;;;;;;1.90;1.07;;;21.70;55.90;;;;;;5096267;27;20943;-52
2022/06/14 08:34:51;;;;;;;2.10;1.10;;;21.70;55.90;;;;;;5039079;27;20684;-48
2022/06/14 08:37:38;;;;;;;1.37;1.10;;;21.70;55.90;;;;;;5121574;27;20570;-56
2022/06/14 08:40:35;;;;;;;2.60;1.00;;;21.70;55.80;;;;;;5100371;27;1210098;-48
2022/06/14 08:43:23;;;;;;;1.93;1.40;;;21.70;55.80;;;;;;5079177;28;20585;-48
2022/06/14 08:46:20;;;;;;;1.40;1.03;;;21.70;55.70;;;;;;5076253;27;20532;-48
2022/06/14 08:49:10;;;;;;;2.73;1.00;;;21.70;55.60;;;;;;5057700;27;20638;-47
2022/06/14 08:52:17;;;;;;;1.90;0.90;;;21.70;56.70;;;;;;5087528;27;20549;-50
2022/06/14 08:55:09;;;;;;;2.20;0.77;;;21.70;55.60;;;;;;5099385;27;21049;-48
2022/06/14 08:58:18;;;;;;;1.80;1.17;;;21.70;55.60;;;;;;5072534;28;21071;-54
2022/06/14 09:01:10;;;;;;;1.60;1.20;;;21.60;55.80;;;;;;5084296;28;20565;-48
2022/06/14 09:04:12;;;;;;;3.93;1.87;;;21.70;54.30;;;;;;5078645;27;20542;-49
2022/06/14 09:07:20;;;;;;;2.70;1.60;;;21.70;54.00;;;;;;5098932;27;20945;-48
2022/06/14 09:10:23;;;;;;;3.13;1.30;;;21.70;54.30;;;;;;5086470;27;20544;-50
2022/06/14 09:13:19;;;;;;;1.83;1.30;;;21.70;54.50;;;;;;5128331;27;20517;-52
2022/06/14 09:16:17;;;;;;;4.33;1.17;;;21.70;54.60;;;;;;5081794;28;20528;-49
2022/06/14 09:19:05;;;;;;;3.47;0.80;;;21.70;54.90;;;;;;5057471;28;20945;-48
2022/06/14 09:22:02;;;;;;;2.10;1.00;;;21.70;55.20;;;;;;5074571;28;21057;-49
2022/06/14 09:25:06;;;;;;;1.13;1.03;;;21.70;55.30;;;;;;5079930;27;21146;-49
2022/06/14 09:28:05;;;;;;;2.93;1.00;;;21.70;55.60;;;;;;5076691;28;20527;-48
2022/06/14 09:31:21;;;;;;;3.57;1.10;;;21.70;55.60;;;;;;5063903;27;20578;-50
2022/06/14 09:34:28;;;;;;;2.17;1.20;;;21.70;55.70;;;;;;5064133;28;20594;-48
2022/06/14 09:37:40;;;;;;;3.73;1.10;;;21.70;55.40;;;;;;5102782;27;20931;-52
2022/06/14 09:40:34;;;;;;;3.93;1.20;;;21.70;55.60;;;;;;5084835;27;21279;-46
2022/06/14 09:44:14;;;;;;;4.03;1.40;;;21.70;55.60;;;;;;5107301;27;20526;-52
2022/06/14 09:47:21;;;;;;;1.33;1.00;;;21.70;55.10;;;;;;5101052;27;20578;-46
2022/06/14 09:50:26;;;;;;;1.63;0.93;;;21.60;55.30;;;;;;5088482;27;20545;-48
2022/06/14 09:53:41;;;;;;;2.00;1.07;;;21.60;55.60;;;;;;5118539;27;20581;-48
2022/06/14 09:56:43;;;;;;;3.20;1.30;;;21.70;55.60;;;;;;5102001;27;20529;-49
2022/06/14 10:00:00;;;;;;;1.87;1.43;;;21.70;55.30;;;;;;5099869;27;20591;-49
2022/06/14 10:02:57;;;;;;;1.87;1.10;;;21.70;55.40;;;;;;5081167;28;20527;-47
2022/06/14 10:05:55;;;;;;;1.53;1.10;;;21.70;54.90;;;;;;5063917;27;20536;-49
2022/06/14 10:08:59;;;;;;;2.03;1.10;;;21.70;55.10;;;;;;5074039;27;20914;-47
2022/06/14 10:11:51;;;;;;;3.93;1.20;;;21.70;54.70;;;;;;5128242;27;20521;-48
2022/06/14 10:14:45;;;;;;;2.20;1.30;;;21.70;54.50;;;;;;5113392;27;20606;-51
2022/06/14 10:17:54;;;;;;;1.30;1.20;;;21.70;56.40;;;;;;5125906;27;20855;-50
2022/06/14 10:20:51;;;;;;;2.00;1.40;;;21.70;54.90;;;;;;5064887;27;20545;-49
2022/06/14 10:23:51;;;;;;;1.90;1.10;;;21.70;54.80;;;;;;5076937;27;20676;-51
2022/06/14 10:30:11;;;;;;;6.93;1.80;;;21.70;56.10;;;;;;5126359;27;20595;-47
2022/06/14 10:33:08;;;;;;;2.30;1.37;;;21.70;53.20;;;;;;5066713;28;20547;-49
2022/06/14 10:35:56;;;;;;;3.37;1.37;;;21.70;53.70;;;;;;5057320;27;20557;-48
2022/06/14 10:39:08;;;;;;;2.57;1.30;;;21.70;53.80;;;;;;5052215;28;20535;-47
2022/06/14 10:41:57;;;;;;;4.13;1.77;;;21.70;54.00;;;;;;5110405;27;1229161;-48
2022/06/14 10:44:43;;;;;;;3.90;1.87;;;21.70;53.30;;;;;;5067232;27;20612;-50
2022/06/14 10:47:41;;;;;;;4.13;1.57;;;21.70;54.00;;;;;;5082803;27;20851;-46
2022/06/14 10:50:47;;;;;;;4.60;1.50;;;21.70;54.50;;;;;;5067795;27;20557;-48
2022/06/14 10:53:39;;;;;;;1.90;1.30;;;21.80;54.30;;;;;;5105086;27;20542;-51
2022/06/14 10:56:36;;;;;;;2.97;1.90;;;21.70;54.70;;;;;;5118862;27;20529;-50
2022/06/14 10:59:35;;;;;;;3.53;1.60;;;21.80;53.00;;;;;;5067943;28;20603;-48
2022/06/14 11:02:36;;;;;;;4.80;2.07;;;21.80;54.00;;;;;;5081907;27;20547;-49
2022/06/14 11:05:24;;;;;;;2.57;1.90;;;21.80;53.10;;;;;;5031158;27;20539;-51
2022/06/14 11:08:29;;;;;;;4.57;1.50;;;21.80;53.00;;;;;;5118774;27;20530;-48
2022/06/14 11:11:45;;;;;;;5.13;2.10;;;21.80;53.90;;;;;;5070737;28;20540;-48
2022/06/14 11:14:34;;;;;;;6.73;2.00;;;21.90;53.30;;;;;;5045890;28;20555;-47
2022/06/14 11:17:27;;;;;;;4.80;1.73;;;21.80;53.10;;;;;;5080015;28;20577;-48
2022/06/14 11:20:23;;;;;;;4.50;2.00;;;21.80;53.90;;;;;;5050285;27;20614;-48
2022/06/14 11:23:15;;;;;;;3.53;1.60;;;21.80;54.20;;;;;;5116558;27;20588;-52
2022/06/14 11:26:06;;;;;;;3.67;1.57;;;21.80;53.30;;;;;;5066510;28;20544;-48
2022/06/14 11:28:52;;;;;;;7.33;1.87;;;21.80;53.60;;;;;;5105785;27;20590;-48
2022/06/14 11:31:38;;;;;;;5.00;1.67;;;21.80;53.70;;;;;;5130274;27;1200057;-50
2022/06/14 11:34:44;;;;;;;2.47;1.27;;;21.80;53.70;;;;;;5064058;28;21053;-48
2022/06/14 11:37:49;;;;;;;2.42;1.48;;;21.80;54.20;;;;;;5142765;27;1197225;-47
2022/06/14 11:40:33;;;;;;;3.50;1.60;;;21.80;53.30;;;;;;5081287;27;20601;-48
2022/06/14 11:43:36;;;;;;;3.73;1.07;;;21.80;53.30;;;;;;5018394;28;20562;-48
2022/06/14 11:46:27;;;;;;;2.07;1.30;;;21.80;54.00;;;;;;5082167;28;20952;-49
2022/06/14 11:49:11;;;;;;;2.73;1.77;;;21.80;54.50;;;;;;5110926;27;20562;-51
2022/06/14 11:52:03;;;;;;;3.77;1.33;;;21.80;54.30;;;;;;5129916;27;20521;-72
2022/06/14 11:54:52;;;;;;;5.70;2.00;;;21.80;54.20;;;;;;5056217;28;20956;-49
2022/06/14 11:57:43;;;;;;;2.33;1.00;;;21.90;53.80;;;;;;5119436;27;20517;-49
2022/06/14 12:00:36;;;;;;;1.60;1.13;;;21.90;53.80;;;;;;5051042;27;20552;-52
2022/06/14 12:04:10;;;;;;;2.33;1.20;;;21.90;54.30;;;;;;5085693;27;20539;-49
2022/06/14 12:06:58;;;;;;;2.30;1.23;;;21.90;52.70;;;;;;5061597;28;20542;-50
2022/06/14 12:10:20;;;;;;;1.30;0.90;;;21.90;53.50;;;;;;5061362;28;20606;-51
2022/06/14 12:13:13;;;;;;;1.67;1.10;;;21.90;54.00;;;;;;5079033;28;20932;-47
2022/06/14 12:16:04;;;;;;;2.60;1.20;;;21.90;54.00;;;;;;5041989;27;1221660;-51
2022/06/14 12:18:52;;;;;;;3.13;1.20;;;21.90;53.20;;;;;;5068111;28;20533;-47
2022/06/14 12:21:52;;;;;;;1.90;1.10;;;21.90;53.10;;;;;;5081596;27;20534;-51
2022/06/14 12:27:42;;;;;;;1.97;1.43;;;22.00;53.50;;;;;;5114399;27;20652;-47
2022/06/14 12:30:26;;;;;;;3.93;1.63;;;22.00;53.10;;;;;;5093214;27;20548;-48
2022/06/14 12:33:14;;;;;;;1.70;1.23;;;22.00;52.90;;;;;;5079735;28;20814;-50
2022/06/14 12:36:05;;;;;;;1.67;1.47;;;22.00;52.90;;;;;;5013812;28;20608;-48
2022/06/14 12:38:49;;;;;;;3.00;1.50;;;22.00;53.30;;;;;;5117052;27;20531;-49
2022/06/14 12:41:38;;;;;;;4.27;1.07;;;22.00;53.10;;;;;;5132014;27;20527;-49
2022/06/14 12:44:37;;;;;;;4.60;1.50;;;22.00;52.90;;;;;;5057600;28;20595;-49
2022/06/14 12:47:25;;;;;;;1.67;1.33;;;22.00;53.20;;;;;;5087376;27;20724;-48
2022/06/14 12:50:14;;;;;;;2.30;1.60;;;22.00;53.40;;;;;;5060536;27;20561;-49
2022/06/14 12:52:59;;;;;;;2.27;1.50;;;22.00;53.30;;;;;;5119171;27;20599;-47
2022/06/14 12:55:44;;;;;;;3.10;1.23;;;22.10;53.90;;;;;;5102188;27;20545;-49
2022/06/14 12:58:34;;;;;;;1.93;0.90;;;22.10;54.30;;;;;;5087257;27;20950;-73
2022/06/14 13:01:26;;;;;;;1.83;1.43;;;22.10;53.70;;;;;;5086468;28;20528;-49
2022/06/14 13:04:13;;;;;;;1.30;1.07;;;22.10;53.50;;;;;;5114290;27;20551;-48
2022/06/14 13:07:15;;;;;;;2.50;1.50;;;22.10;53.50;;;;;;5127803;27;21037;-49
2022/06/14 13:10:11;;;;;;;3.10;1.50;;;22.10;52.30;;;;;;5080799;27;20617;-47
2022/06/14 13:13:07;;;;;;;2.10;1.43;;;22.10;52.80;;;;;;5084534;28;20590;-48
2022/06/14 13:15:55;;;;;;;1.40;1.30;;;22.10;52.70;;;;;;5021447;27;21026;-48
2022/06/14 13:18:50;;;;;;;4.43;1.10;;;22.10;52.40;;;;;;5084728;28;20654;-48
2022/06/14 13:21:45;;;;;;;3.10;1.57;;;22.10;52.00;;;;;;5071568;27;20562;-49
2022/06/14 13:24:36;;;;;;;1.50;1.20;;;22.20;52.20;;;;;;5085253;27;20975;-49
2022/06/14 13:27:23;;;;;;;2.70;1.30;;;22.20;52.90;;;;;;5073113;28;20529;-51
2022/06/14 13:30:10;;;;;;;1.60;1.00;;;22.20;53.10;;;;;;5036598;27;20559;-49
2022/06/14 13:33:04;;;;;;;1.70;1.20;;;22.20;53.60;;;;;;5124318;27;20529;-50
2022/06/14 13:35:52;;;;;;;2.77;1.10;;;22.20;53.60;;;;;;5084347;27;20556;-50
2022/06/14 13:38:40;;;;;;;1.13;0.97;;;22.20;53.30;;;;;;5110037;27;20589;-52
2022/06/14 13:41:32;;;;;;;1.47;1.00;;;22.20;53.80;;;;;;5085286;28;20553;-48
2022/06/14 13:44:17;;;;;;;3.20;1.30;;;22.20;54.00;;;;;;5062041;28;20550;-50
2022/06/14 13:47:02;;;;;;;1.80;1.50;;;22.30;54.70;;;;;;5079164;28;20567;-47
2022/06/14 13:49:47;;;;;;;4.10;1.93;;;22.30;54.60;;;;;;5060545;28;20615;-48
2022/06/14 13:52:34;;;;;;;1.00;0.90;;;22.30;53.90;;;;;;5104694;27;20570;-49
2022/06/14 13:55:23;;;;;;;1.30;1.20;;;22.30;53.90;;;;;;5043369;28;20552;-47
2022/06/14 13:58:11;;;;;;;1.40;1.27;;;22.30;54.30;;;;;;5107260;27;20593;-49
2022/06/14 14:01:00;;;;;;;2.00;1.23;;;22.30;54.50;;;;;;5056802;27;20556;-49
2022/06/14 14:03:48;;;;;;;3.73;1.37;;;22.30;54.50;;;;;;5073494;28;20604;-49
2022/06/14 14:06:35;;;;;;;1.90;1.40;;;22.30;54.70;;;;;;5147752;27;20537;-50
2022/06/14 14:09:29;;;;;;;1.83;1.20;;;22.30;54.70;;;;;;5111232;27;20545;-50
2022/06/14 14:12:18;;;;;;;0.93;0.70;;;22.30;54.80;;;;;;5105568;27;20580;-49
2022/06/14 14:15:18;;;;;;;1.10;0.93;;;22.40;55.20;;;;;;5057589;28;20866;-48
2022/06/14 14:18:08;;;;;;;1.20;0.97;;;22.40;55.20;;;;;;5072771;28;20593;-49
2022/06/14 14:20:53;;;;;;;1.07;0.97;;;22.40;55.10;;;;;;5068866;27;20624;-49
2022/06/14 14:23:47;;;;;;;1.10;1.00;;;22.40;55.30;;;;;;5083915;28;20949;-50
2022/06/14 14:26:33;;;;;;;1.27;1.10;;;22.40;55.50;;;;;;5084536;27;20609;-49
2022/06/14 14:29:21;;;;;;;2.67;1.23;;;22.40;55.20;;;;;;5084728;27;20533;-49
2022/06/14 14:32:11;;;;;;;1.60;1.10;;;22.40;55.40;;;;;;5079524;27;20616;-49
2022/06/14 14:34:56;;;;;;;2.53;1.40;;;22.40;55.40;;;;;;5051657;28;20562;-48
2022/06/14 14:37:42;;;;;;;2.23;1.30;;;22.40;54.90;;;;;;5128296;27;20527;-51
2022/06/14 14:40:31;;;;;;;1.17;1.07;;;22.50;55.40;;;;;;5089257;27;20564;-48
2022/06/14 14:43:20;;;;;;;3.00;1.23;;;22.50;55.50;;;;;;5128665;27;20929;-47
2022/06/14 14:46:10;;;;;;;5.67;2.20;;;22.50;55.50;;;;;;5064392;27;20598;-49
2022/06/14 14:48:57;;;;;;;4.33;1.90;;;22.50;52.90;;;;;;5117946;27;20609;-52
2022/06/14 14:51:44;;;;;;;9.73;2.27;;;22.50;51.70;;;;;;5086911;27;20585;-49
2022/06/14 14:54:41;;;;;;;5.13;2.27;;;22.40;51.60;;;;;;5056220;28;20547;-48
2022/06/14 14:57:30;;;;;;;6.03;1.83;;;22.40;52.40;;;;;;5126180;27;20945;-48
2022/06/14 15:00:22;;;;;;;4.60;1.73;;;22.40;52.40;;;;;;5063349;28;20601;-50